Stunt Ranch Reserve, Santa Monica Mtns, California Weather observations

Data are for 10 minute period ending at time listed.
 Day   Time   Solar   Ave.   Ave.  Ave.  Vector  Max.   Baro.   Total    
  of    of     Rad.   Air    Rel.  Wind   Wind   Wind  Press.  Precip.   
Year   Day            Temp.  Hum.  Speed  Dir.   Gust                    
2019   (PST)  Kw/m2    F      %     mph   deg.    mph    mb.     in.     
-------------------------------------------------------------------------
 316   21:10   0.00   60.8    41    0.4   105     1.2   971.7    0.00 
 316   21:20   0.00   61.4    42    0.5   250     1.6   971.7    0.00 
 316   21:30   0.00   62.2    34    0.8   162     1.8   971.6    0.00 
 316   21:40   0.00   62.8    34    0.5   246     1.5   971.7    0.00 
 316   21:50   0.00   62.9    34    0.0   283     0.5   971.6    0.00 
 316   22:00   0.00   63.2    27    0.3   302     1.2   971.6    0.00 
 316   22:10   0.00   62.5    30    0.2   330     1.0   971.6    0.00 
 316   22:20   0.00   63.0    29    0.0   102     0.8   971.5    0.00 
 316   22:30   0.00   63.1    28    0.8   310     1.3   971.5    0.00 
 316   22:40   0.00   62.2    28    0.3   262     1.5   971.6    0.00 
 316   22:50   0.00   62.4    26    0.8   148     2.5   971.6    0.00 
 316   23:00   0.00   63.4    24    0.5   138     1.7   971.6    0.00 
 316   23:10   0.00   62.1    25    0.1   241     0.8   971.5    0.00 
 316   23:20   0.00   61.8    27    0.2   252     0.9   971.4    0.00 
 316   23:30   0.00   62.1    26    0.6   289     1.5   971.4    0.00 
 316   23:40   0.00   62.2    26    1.1   142     2.6   971.4    0.00 
 316   23:50   0.00   63.4    28    0.3   125     1.2   971.4    0.00 
 317    0:00   0.00   62.5    30    0.9   291     1.5   971.3    0.00 
 317    0:10   0.00   61.3    25    0.7    89     1.8   971.3    0.00 
 317    0:20   0.00   60.8    25    0.3   306     1.7   971.3    0.00 
 317    0:30   0.00   60.7    25    0.0     0     0.0   971.3    0.00 
 317    0:40   0.00   60.2    26    0.0   311     0.7   971.3    0.00 
 317    0:50   0.00   60.2    26    0.0     2     0.7   971.2    0.00 
 317    1:00   0.00   60.4    26    0.0   220     0.5   971.1    0.00 
 317    1:10   0.00   59.8    28    0.9   297     2.0   971.1    0.00 
 317    1:20   0.00   58.5    31    0.6   260     1.5   971.2    0.00 
 317    1:30   0.00   58.1    31    1.5   128     2.6   971.2    0.00 
 317    1:40   0.00   58.2    33    0.1   218     1.2   971.1    0.00 
 317    1:50   0.00   58.5    35    0.0     0     0.0   971.0    0.00 
 317    2:00   0.00   58.4    36    0.4   287     1.0   970.9    0.00 
 317    2:10   0.00   57.9    37    0.5   279     1.2   970.8    0.00 
 317    2:20   0.00   57.0    37    0.3   290     1.2   970.8    0.00 
 317    2:30   0.00   56.8    39    0.4   286     1.5   970.8    0.00 
 317    2:40   0.00   56.7    38    0.6   128     1.9   970.8    0.00 
 317    2:50   0.00   57.0    35    0.2   133     1.1   970.8    0.00 
 317    3:00   0.00   57.2    36    0.0     0     0.0   970.7    0.00 
 317    3:10   0.00   57.5    37    0.0     0     0.0   970.7    0.00 
 317    3:20   0.00   57.1    36    0.5     7     1.2   970.7    0.00 
 317    3:30   0.00   56.7    37    0.1    31     1.2   970.6    0.00 
 317    3:40   0.00   56.0    39    0.3   248     1.2   970.6    0.00 
 317    3:50   0.00   55.8    37    0.0     0     0.0   970.6    0.00 
 317    4:00   0.00   56.4    40    0.7   266     1.8   970.6    0.00 
 317    4:10   0.00   56.6    44    1.6   132     2.7   970.6    0.00 
 317    4:20   0.00   57.6    48    0.0   156     0.9   970.6    0.00 
 317    4:30   0.00   58.2    52    0.0   170     0.6   970.6    0.00 
 317    4:40   0.00   58.5    51    0.8   276     1.3   970.6    0.00 
 317    4:50   0.00   57.8    44    0.5    64     1.4   970.6    0.00 
 317    5:00   0.00   56.8    43    0.0     0     0.0   970.6    0.00 
 317    5:10   0.00   56.7    42    0.1    79     0.7   970.6    0.00 
 317    5:20   0.00   57.5    41    0.3   166     1.3   970.5    0.00 
 317    5:30   0.00   57.2    40    0.5   264     1.5   970.5    0.00 
 317    5:40   0.00   57.7    38    0.6   158     2.8   970.4    0.00 
 317    5:50   0.00   58.3    38    1.7   281     3.1   970.5    0.00 
 317    6:00   0.00   57.6    38    0.9   142     2.6   970.5    0.00 
 317    6:10   0.00   57.9    36    0.7   108     1.9   970.5    0.00 
 317    6:20   0.01   58.4    36    1.7   270     2.7   970.5    0.00 
 317    6:30   0.01   57.4    39    1.2   280     2.5   970.7    0.00 
 317    6:40   0.02   56.5    38    1.4   131     2.6   970.9    0.00 
 317    6:50   0.04   56.7    36    1.2   112     2.3   970.9    0.00 
 317    7:00   0.06   58.5    35    0.6    14     1.5   971.0    0.00 
 317    7:10   0.07   59.6    36    0.8   187     2.1   971.1    0.00 
 317    7:20   0.09   60.6    35    0.3   243     1.3   971.2    0.00 
 317    7:30   0.12   61.5    34    0.1   292     0.8   971.3    0.00 
 317    7:40   0.21   62.5    36    1.2   127     1.8   971.4    0.00 
 317    7:50   0.23   65.0    30    1.2   121     2.2   971.5    0.00 
 317    8:00   0.18   66.8    32    0.2    48     1.2   971.7    0.00 
 317    8:10   0.19   66.3    34    0.2    60     1.0   971.8    0.00 
 317    8:20   0.19   65.3    37    0.1   292     1.0   971.8    0.00 
 317    8:30   0.20   65.0    35    0.4   292     1.8   972.0    0.00 
 317    8:40   0.19   65.8    36    1.0   273     2.1   972.1    0.00 
 317    8:50   0.21   65.8    37    0.9   140     1.8   972.0    0.00 
 317    9:00   0.32   67.9    33    0.3   352     1.8   971.9    0.00 
 317    9:10   0.35   71.3    33    2.0   281     2.8   971.9    0.00 
 317    9:20   0.36   71.4    32    1.6   288     2.4   972.0    0.00 
 317    9:30   0.39   71.7    31    1.2   285     3.3   972.1    0.00 
 317    9:40   0.38   70.4    34    1.4   289     3.3   972.2    0.00 
 317    9:50   0.34   69.2    35    1.1    14     2.4   972.2    0.00 
 317   10:00   0.35   69.9    34    0.7   300     2.0   972.3    0.00 
 317   10:10   0.37   70.8    32    0.6   318     1.8   972.2    0.00 
 317   10:20   0.60   72.2    30    1.2   357     3.1   972.2    0.00 
 317   10:30   0.58   74.9    28    1.2    75     3.5   971.9    0.00 
 317   10:40   0.59   76.3    28    2.1   294     4.2   971.9    0.00 
 317   10:50   0.59   77.6    27    2.2   279     4.1   971.8    0.00 
 317   11:00   0.57   78.6    26    2.9   279     5.0   971.7    0.00 
 317   11:10   0.54   79.1    26    3.2   278     5.6   971.5    0.00 
 317   11:20   0.60   79.7    24    2.7   275     5.0   971.4    0.00 
 317   11:30   0.62   79.9    22    2.6   284     4.7   971.3    0.00 
 317   11:40   0.57   79.6    19    2.3   277     4.2   971.1    0.00 
 317   11:50   0.47   80.2    22    3.4   278     6.0   970.9    0.00 
 317   12:00   0.52   79.2    26    3.3   273     5.0   970.8    0.00 
 317   12:10   0.53   79.6    29    3.0   283     5.2   970.6    0.00 
 317   12:20   0.56   80.3    29    3.0   277     5.8   970.5    0.00 
 317   12:30   0.59   80.5    26    2.4   287     4.7   970.4    0.00 
 317   12:40   0.55   81.3    27    3.0   287     7.0   970.3    0.00 
 317   12:50   0.43   81.4    28    3.2   283     6.4   970.3    0.00 
 317   13:00   0.60   79.9    29    3.4   288     5.6   970.2    0.00 
 317   13:10   0.59   79.7    30    1.7   293     3.9   970.1    0.00 
 317   13:20   0.48   79.1    30    2.3   285     5.0   970.0    0.00 
 317   13:30   0.53   79.3    31    2.9   278     4.7   969.9    0.00 
 317   13:40   0.45   79.9    30    2.8   283     6.1   969.9    0.00 
 317   13:50   0.40   79.0    34    2.2   279     4.9   969.9    0.00 
 317   14:00   0.44   78.4    36    2.5   283     6.4   969.9    0.00 
 317   14:10   0.39   78.8    38    3.6   276     7.5   970.1    0.00 
 317   14:20   0.18   76.8    41    2.9   280     5.6   970.1    0.00 
 317   14:30   0.19   74.8    45    3.3   276     6.2   970.0    0.00 
 317   14:40   0.35   73.3    47    2.2   270     6.3   969.9    0.00 
 317   14:50   0.40   73.6    46    1.5   288     4.1   969.9    0.00 
 317   15:00   0.31   75.6    44    2.6   278     6.9   970.1    0.00 
 317   15:10   0.23   74.8    46    1.5   275     5.0   970.1    0.00 
 317   15:20   0.22   73.8    48    1.9   282     4.5   970.1    0.00 
 317   15:30   0.24   72.8    50    1.7   287     4.4   970.1    0.00 
 317   15:40   0.20   72.1    52    2.3   279     3.9   970.1    0.00 
 317   15:50   0.10   70.7    54    2.3   267     3.8   970.2    0.00 
 317   16:00   0.13   69.2    56    0.4   293     2.6   970.2    0.00 
 317   16:10   0.06   68.2    57    0.9   225     2.0   970.1    0.00 
 317   16:20   0.03   66.8    57    1.8   258     2.8   970.2    0.00 
 317   16:30   0.03   65.1    60    3.1   268     4.4   970.2    0.00 
 317   16:40   0.02   64.0    64    2.3   265     4.0   970.3    0.00 
 317   16:50   0.01   63.1    67    2.3   262     3.9   970.3    0.00 
 317   17:00   0.00   62.1    67    2.3   267     4.0   970.4    0.00 
 317   17:10   0.00   61.2    67    2.0   260     3.7   970.5    0.00 
 317   17:20   0.00   60.9    66    1.9   248     3.0   970.4    0.00 
 317   17:30   0.00   59.7    68    2.7   264     4.5   970.5    0.00 
 317   17:40   0.00   59.1    69    2.0   254     4.2   970.6    0.00 
 317   17:50   0.00   58.6    70    1.6   257     3.0   970.7    0.00 
 317   18:00   0.00   58.2    71    1.3   250     2.3   970.7    0.00 
 317   18:10   100.00  99999.0   99999  99999.0   99999   99999.0   99999.0   99999.00 
 317   18:20   100.00  99999.0   99999  99999.0   99999   99999.0   99999.0   99999.00 
 317   18:30   100.00  99999.0   99999  99999.0   99999   99999.0   99999.0   99999.00 
 317   18:40   100.00  99999.0   99999  99999.0   99999   99999.0   99999.0   99999.00 
 317   18:50   100.00  99999.0   99999  99999.0   99999   99999.0   99999.0   99999.00 
 317   19:00   100.00  99999.0   99999  99999.0   99999   99999.0   99999.0   99999.00 
 317   19:10   0.00   55.4    82    0.7   290     1.3   971.0    0.00 
 317   19:20   0.00   55.1    81    0.6   259     1.5   971.0    0.00 
 317   19:30   0.00   54.6    81    0.1   244     0.7   971.0    0.00 
 317   19:40   0.00   54.6    82    1.1   275     1.9   971.1    0.00 
 317   19:50   0.00   54.3    82    1.7   269     2.9   971.3    0.00 
 317   20:00   0.00   53.8    79    1.4   130     2.8   971.4    0.00 
 317   20:10   0.00   53.6    79    0.6   136     2.6   971.4    0.00 
 317   20:20   0.00   53.9    82    0.0   327     0.5   971.5    0.00 
 317   20:30   0.00   53.8    80    0.8   130     2.6   971.5    0.00 
 317   20:40   0.00   53.9    80    0.3   304     1.3   971.6    0.00 
 317   20:50   0.00   53.9    81    0.8   119     1.6   971.6    0.00 
 317   21:00   0.00   54.0    81    0.2   163     1.2   971.6    0.00 

Return to Stunt Ranch Reserve graphs page.


Western Regional Climate Center,wrcc@dri.edu